Time;durP1;ratioP1;P1;durP2;ratioP2;P2;SDS_P1;SDS_P2;PMS_P1;PMS_P2;Temp;Humidity;BMP_temperature;BMP_pressure;BME280_temperature;BME280_humidity;BME280_pressure;Samples;Min_cycle;Max_cycle;Signal;HPM_P1;HPM_P2
2023/12/10 00:00:26;;;;;;;5.43;3.03;;;8.30;99.90;;;;;;5030978;28;20238;-63
2023/12/10 00:02:53;;;;;;;5.70;2.10;;;8.40;99.90;;;;;;5030783;28;20269;-62
2023/12/10 00:05:21;;;;;;;6.00;3.38;;;8.40;99.90;;;;;;5030098;28;20327;-63
2023/12/10 00:07:48;;;;;;;6.50;2.50;;;8.40;99.90;;;;;;5024338;28;20577;-63
2023/12/10 00:10:15;;;;;;;6.80;2.45;;;8.50;99.90;;;;;;5030676;28;20211;-62
2023/12/10 00:12:42;;;;;;;9.82;3.28;;;8.50;99.90;;;;;;5030676;28;20283;-63
2023/12/10 00:15:10;;;;;;;5.15;3.20;;;8.50;99.90;;;;;;5030766;28;20231;-62
2023/12/10 00:17:37;;;;;;;5.93;2.90;;;8.50;99.90;;;;;;5030479;28;20253;-62
2023/12/10 00:20:04;;;;;;;8.75;4.13;;;8.50;99.90;;;;;;5030642;28;20238;-63
2023/12/10 00:22:33;;;;;;;3.92;3.08;;;8.50;99.90;;;;;;5030551;28;20606;-60
2023/12/10 00:24:59;;;;;;;15.25;3.47;;;8.50;99.90;;;;;;5030682;28;20362;-63
2023/12/10 00:27:26;;;;;;;6.53;3.67;;;8.50;99.90;;;;;;5030235;28;20234;-63
2023/12/10 00:29:54;;;;;;;6.35;2.65;;;8.50;99.90;;;;;;5030639;28;20655;-63
2023/12/10 00:32:21;;;;;;;6.82;3.45;;;8.50;99.90;;;;;;5030229;28;20257;-63
2023/12/10 00:34:48;;;;;;;6.68;2.90;;;8.50;99.90;;;;;;5030401;28;20207;-63
2023/12/10 00:37:15;;;;;;;6.90;2.67;;;8.40;99.90;;;;;;5030232;28;20280;-63
2023/12/10 00:39:43;;;;;;;6.82;2.42;;;8.40;99.90;;;;;;5030254;28;20207;-62
2023/12/10 00:42:10;;;;;;;7.65;3.60;;;8.40;99.90;;;;;;5032689;28;20655;-63
2023/12/10 00:44:37;;;;;;;16.10;3.92;;;8.40;99.90;;;;;;5032671;28;20198;-62
2023/12/10 00:47:04;;;;;;;8.43;2.60;;;8.40;99.90;;;;;;5034564;28;20207;-63
2023/12/10 00:49:31;;;;;;;9.63;3.10;;;8.30;99.90;;;;;;5036465;28;20265;-63
2023/12/10 00:51:57;;;;;;;6.38;2.83;;;8.40;99.90;;;;;;5037010;28;20203;-62
2023/12/10 00:54:25;;;;;;;11.35;3.15;;;8.30;99.90;;;;;;5036837;28;20242;-63
2023/12/10 00:56:53;;;;;;;8.93;3.30;;;8.30;99.90;;;;;;5036174;28;20233;-62
2023/12/10 00:59:20;;;;;;;8.75;3.80;;;8.30;99.90;;;;;;5036122;28;20281;-63
2023/12/10 01:01:47;;;;;;;10.43;4.05;;;8.30;99.90;;;;;;5036721;28;20258;-63
2023/12/10 01:04:14;;;;;;;5.40;2.90;;;8.30;99.90;;;;;;5034817;28;20697;-63
2023/12/10 01:06:41;;;;;;;13.70;3.45;;;8.40;99.90;;;;;;5034415;28;20761;-63
2023/12/10 01:09:08;;;;;;;9.32;3.40;;;8.40;99.90;;;;;;5034580;28;20266;-62
2023/12/10 01:11:35;;;;;;;13.77;3.78;;;8.40;99.90;;;;;;5034702;28;20197;-63
2023/12/10 01:14:04;;;;;;;10.10;3.40;;;8.40;99.90;;;;;;5034808;28;20736;-63
2023/12/10 01:16:31;;;;;;;8.07;3.67;;;8.40;99.90;;;;;;5034971;28;20235;-63
2023/12/10 01:18:58;;;;;;;6.68;5.00;;;8.50;99.90;;;;;;5034657;28;20869;-63
2023/12/10 01:21:25;;;;;;;13.82;4.88;;;8.50;99.90;;;;;;5036370;28;20304;-62
2023/12/10 01:23:55;;;;;;;16.40;3.95;;;8.50;99.90;;;;;;5036782;28;20253;-63
2023/12/10 01:26:22;;;;;;;8.75;2.88;;;8.50;99.90;;;;;;5036117;28;20936;-63
2023/12/10 01:28:49;;;;;;;13.32;3.97;;;8.50;99.90;;;;;;5036385;28;20211;-63
2023/12/10 01:31:18;;;;;;;11.35;3.85;;;8.50;99.90;;;;;;5036617;28;20619;-63
2023/12/10 01:33:45;;;;;;;9.30;2.90;;;8.50;99.90;;;;;;5036591;28;20203;-63
2023/12/10 01:36:22;;;;;;;10.27;3.50;;;8.50;99.90;;;;;;5036446;28;20664;-63
2023/12/10 01:38:49;;;;;;;8.98;3.55;;;8.50;99.90;;;;;;5029671;28;20198;-63
2023/12/10 01:41:16;;;;;;;7.60;4.75;;;8.50;99.90;;;;;;5036156;28;20211;-63
2023/12/10 01:43:43;;;;;;;7.03;3.20;;;8.50;99.90;;;;;;5036383;28;20269;-63
2023/12/10 01:46:10;;;;;;;10.55;3.55;;;8.50;99.90;;;;;;5035864;28;20258;-62
2023/12/10 01:48:40;;;;;;;12.80;4.35;;;8.50;99.90;;;;;;5028082;28;20203;-63
2023/12/10 01:51:09;;;;;;;14.90;4.88;;;8.50;99.90;;;;;;5036738;28;20293;-63
2023/12/10 01:53:36;;;;;;;14.05;4.90;;;8.50;99.90;;;;;;5033812;28;20685;-63
2023/12/10 01:56:05;;;;;;;9.15;3.50;;;8.50;99.90;;;;;;5033024;28;20230;-63
2023/12/10 01:58:32;;;;;;;9.32;3.85;;;8.50;99.90;;;;;;5033045;28;20288;-63
2023/12/10 02:01:01;;;;;;;9.00;4.78;;;8.50;99.90;;;;;;5033261;28;20219;-62
2023/12/10 02:03:30;;;;;;;17.48;4.53;;;8.50;99.90;;;;;;5032914;28;20256;-63
2023/12/10 02:05:59;;;;;;;13.32;4.05;;;8.50;99.90;;;;;;5032854;28;20265;-63
2023/12/10 02:08:26;;;;;;;10.38;4.38;;;8.40;99.90;;;;;;5032852;28;20261;-62
2023/12/10 02:10:53;;;;;;;13.85;6.40;;;8.40;99.90;;;;;;5033041;28;20212;-61
2023/12/10 02:13:21;;;;;;;11.45;5.25;;;8.40;99.90;;;;;;5032823;28;20765;-63
2023/12/10 02:15:47;;;;;;;14.48;5.57;;;8.40;99.90;;;;;;5032863;28;20219;-63
2023/12/10 02:18:17;;;;;;;12.45;4.85;;;8.40;99.90;;;;;;5032550;28;20206;-62
2023/12/10 02:20:44;;;;;;;14.52;4.75;;;8.40;99.90;;;;;;5032586;28;20210;-63
2023/12/10 02:23:22;;;;;;;25.83;6.25;;;8.40;99.90;;;;;;5032900;28;20254;-63
2023/12/10 02:25:50;;;;;;;13.90;4.70;;;8.40;99.90;;;;;;5026046;28;20257;-60
2023/12/10 02:28:22;;;;;;;13.23;4.63;;;8.40;99.90;;;;;;5032049;28;20242;-63
2023/12/10 02:30:49;;;;;;;12.48;4.65;;;8.40;99.90;;;;;;5032667;28;20230;-63
2023/12/10 02:33:16;;;;;;;14.13;4.68;;;8.40;99.90;;;;;;5032356;28;20737;-63
2023/12/10 02:35:43;;;;;;;18.35;5.53;;;8.40;99.90;;;;;;5032214;28;20227;-63
2023/12/10 02:38:10;;;;;;;11.00;5.88;;;8.40;99.90;;;;;;5032260;28;20620;-62
2023/12/10 02:40:36;;;;;;;13.23;4.88;;;8.30;99.90;;;;;;5032187;28;20288;-63
2023/12/10 02:43:05;;;;;;;11.30;4.38;;;8.30;99.90;;;;;;5032076;28;20219;-62
2023/12/10 02:45:32;;;;;;;15.77;5.05;;;8.30;99.90;;;;;;5031735;28;20250;-62
2023/12/10 02:47:59;;;;;;;13.02;6.15;;;8.30;99.90;;;;;;5032214;28;20290;-62
2023/12/10 02:50:26;;;;;;;15.15;4.90;;;8.30;99.90;;;;;;5032381;28;20203;-63
2023/12/10 02:52:53;;;;;;;17.00;5.18;;;8.30;99.90;;;;;;5032307;28;20199;-63
2023/12/10 02:55:19;;;;;;;12.70;4.82;;;8.40;99.90;;;;;;5031968;28;20231;-62
2023/12/10 02:57:46;;;;;;;17.70;5.07;;;8.30;99.90;;;;;;5031912;28;20226;-62
2023/12/10 03:00:16;;;;;;;20.23;5.80;;;8.30;99.90;;;;;;5032001;28;20292;-63
2023/12/10 03:02:43;;;;;;;13.32;4.95;;;8.30;99.90;;;;;;5024340;28;20307;-63
2023/12/10 03:05:10;;;;;;;7.10;5.00;;;8.30;99.90;;;;;;5031903;28;20262;-63
2023/12/10 03:07:36;;;;;;;9.98;6.15;;;8.30;99.90;;;;;;5031402;28;20669;-63
2023/12/10 03:10:04;;;;;;;22.00;6.05;;;8.30;99.90;;;;;;5031880;28;20280;-63
2023/12/10 03:12:31;;;;;;;16.60;4.38;;;8.30;99.90;;;;;;5031689;28;20239;-63
2023/12/10 03:14:58;;;;;;;13.48;4.90;;;8.30;99.90;;;;;;5031499;28;20288;-62
2023/12/10 03:17:26;;;;;;;18.15;5.03;;;8.30;99.90;;;;;;5031532;28;20632;-63
2023/12/10 03:19:53;;;;;;;12.23;5.35;;;8.30;99.90;;;;;;5031705;28;20269;-63
2023/12/10 03:22:20;;;;;;;8.40;4.88;;;8.30;99.90;;;;;;5031845;28;20299;-63
2023/12/10 03:24:47;;;;;;;13.70;5.07;;;8.30;99.90;;;;;;5031180;28;20618;-62
2023/12/10 03:27:14;;;;;;;13.68;5.10;;;8.30;99.90;;;;;;5033070;28;20207;-60
2023/12/10 03:29:41;;;;;;;11.43;4.97;;;8.30;99.90;;;;;;5038541;28;20256;-63
2023/12/10 03:32:08;;;;;;;11.20;4.60;;;8.20;99.90;;;;;;5035010;28;20204;-62
2023/12/10 03:34:36;;;;;;;17.08;4.68;;;8.20;99.90;;;;;;5023291;28;20754;-63
2023/12/10 03:37:03;;;;;;;22.00;6.57;;;8.20;99.90;;;;;;5022920;28;20666;-63
2023/12/10 03:39:30;;;;;;;13.60;4.85;;;8.20;99.90;;;;;;5042034;28;20202;-62
2023/12/10 03:41:57;;;;;;;17.58;5.65;;;8.20;99.90;;;;;;5045785;28;20242;-62
2023/12/10 03:44:24;;;;;;;16.10;5.55;;;8.20;99.90;;;;;;5040029;28;20242;-63
2023/12/10 03:46:51;;;;;;;16.73;5.55;;;8.20;99.90;;;;;;5044800;28;20234;-61
2023/12/10 03:49:18;;;;;;;17.10;6.68;;;8.20;99.90;;;;;;5051368;28;20206;-62
2023/12/10 03:51:46;;;;;;;11.77;4.93;;;8.20;99.90;;;;;;5050928;28;20692;-62
2023/12/10 03:54:13;;;;;;;16.85;6.18;;;8.20;99.90;;;;;;5045936;28;20808;-63
2023/12/10 03:56:40;;;;;;;15.27;5.50;;;8.10;99.90;;;;;;5031782;28;20285;-63
2023/12/10 03:59:07;;;;;;;15.00;5.18;;;8.10;99.90;;;;;;5031747;28;20743;-62
2023/12/10 04:01:34;;;;;;;9.57;4.28;;;8.10;99.90;;;;;;5031802;28;20203;-63
2023/12/10 04:04:01;;;;;;;21.00;5.35;;;8.10;99.90;;;;;;5031671;28;20316;-61
2023/12/10 04:06:28;;;;;;;14.90;5.10;;;8.10;99.90;;;;;;5031379;28;20223;-62
2023/12/10 04:08:56;;;;;;;9.98;5.63;;;8.10;99.90;;;;;;5031253;28;20749;-62
2023/12/10 04:11:24;;;;;;;18.48;5.43;;;8.10;99.90;;;;;;5031591;28;20306;-63
2023/12/10 04:13:50;;;;;;;10.85;3.53;;;8.10;99.90;;;;;;5036247;28;20260;-62
2023/12/10 04:16:25;;;;;;;21.05;6.75;;;8.10;99.90;;;;;;5042555;28;20246;-63
2023/12/10 04:18:52;;;;;;;12.93;4.43;;;8.10;99.90;;;;;;5051118;28;20206;-62
2023/12/10 04:21:20;;;;;;;18.63;4.80;;;8.10;99.90;;;;;;5051272;28;20830;-62
2023/12/10 04:23:47;;;;;;;7.32;4.05;;;8.10;99.90;;;;;;5051402;28;20640;-61
2023/12/10 04:26:16;;;;;;;11.13;4.88;;;8.10;99.90;;;;;;5050871;28;20230;-62
2023/12/10 04:28:44;;;;;;;13.65;4.40;;;8.00;99.90;;;;;;5051020;28;20210;-62
2023/12/10 04:31:11;;;;;;;12.27;3.38;;;8.00;99.90;;;;;;5051038;28;20210;-63
2023/12/10 04:33:38;;;;;;;7.65;3.85;;;8.00;99.90;;;;;;5051192;28;20796;-62
2023/12/10 04:36:06;;;;;;;11.18;4.03;;;7.90;99.90;;;;;;5050617;28;20230;-63
2023/12/10 04:38:33;;;;;;;16.95;4.20;;;7.90;99.90;;;;;;5051091;28;20201;-63
2023/12/10 04:41:00;;;;;;;7.60;2.90;;;7.90;99.90;;;;;;5051096;28;20681;-62
2023/12/10 04:43:28;;;;;;;9.98;3.85;;;7.90;99.90;;;;;;5051138;28;20605;-63
2023/12/10 04:45:55;;;;;;;9.23;3.45;;;7.90;99.90;;;;;;5050662;28;20238;-60
2023/12/10 04:48:22;;;;;;;9.27;4.10;;;7.80;99.90;;;;;;5042185;28;20562;-62
2023/12/10 04:50:49;;;;;;;10.98;4.00;;;7.80;99.90;;;;;;5043805;28;20661;-62
2023/12/10 04:53:16;;;;;;;13.32;3.35;;;7.80;99.90;;;;;;5050030;28;20217;-62
2023/12/10 04:55:44;;;;;;;9.68;3.10;;;7.80;99.90;;;;;;5050948;28;20603;-62
2023/12/10 04:58:11;;;;;;;8.45;3.42;;;7.70;99.90;;;;;;5050662;28;20245;-63
2023/12/10 05:00:39;;;;;;;8.02;2.78;;;7.70;99.90;;;;;;5050876;28;20210;-63
2023/12/10 05:03:06;;;;;;;8.13;3.20;;;7.70;99.90;;;;;;5050713;28;20276;-63
2023/12/10 05:05:33;;;;;;;8.63;2.33;;;7.70;99.90;;;;;;5065452;22;20303;-60
2023/12/10 05:08:00;;;;;;;6.05;2.30;;;7.60;99.90;;;;;;5029825;28;20269;-58
2023/12/10 05:10:27;;;;;;;10.60;4.30;;;7.60;99.90;;;;;;5031066;28;20199;-57
2023/12/10 05:12:54;;;;;;;16.63;4.45;;;7.60;99.90;;;;;;5030842;28;20253;-59
2023/12/10 05:15:21;;;;;;;8.90;3.33;;;7.60;99.90;;;;;;5030711;28;20234;-55
2023/12/10 05:17:49;;;;;;;7.78;3.10;;;7.60;99.90;;;;;;5030629;28;20210;-58
2023/12/10 05:20:16;;;;;;;11.35;2.95;;;7.60;99.90;;;;;;5030822;28;20269;-60
2023/12/10 05:22:43;;;;;;;8.63;3.20;;;7.60;99.90;;;;;;5030778;28;20727;-57
2023/12/10 05:25:11;;;;;;;17.10;4.30;;;7.60;99.90;;;;;;5026693;28;20238;-59
2023/12/10 05:27:38;;;;;;;5.85;3.20;;;7.60;99.90;;;;;;5030590;28;20227;-56
2023/12/10 05:30:05;;;;;;;9.00;2.97;;;7.60;99.90;;;;;;5033256;28;20261;-59
2023/12/10 05:32:32;;;;;;;6.35;2.22;;;7.60;99.90;;;;;;5034472;28;20203;-60
2023/12/10 05:35:01;;;;;;;9.40;3.58;;;7.60;99.90;;;;;;5034405;28;20211;-59
2023/12/10 05:37:28;;;;;;;9.48;3.28;;;7.60;99.90;;;;;;5034285;28;20289;-58
2023/12/10 05:39:55;;;;;;;5.82;2.65;;;7.60;99.90;;;;;;5034343;28;20203;-60
2023/12/10 05:42:22;;;;;;;6.63;2.90;;;7.60;99.90;;;;;;5034312;28;20225;-59
2023/12/10 05:44:49;;;;;;;6.85;2.42;;;7.60;99.90;;;;;;5034170;28;20227;-60
2023/12/10 05:47:16;;;;;;;10.55;3.17;;;7.60;99.90;;;;;;5033895;28;20317;-57
2023/12/10 05:49:43;;;;;;;8.43;2.80;;;7.60;99.90;;;;;;5034190;28;20207;-60
2023/12/10 05:52:12;;;;;;;14.20;2.33;;;7.70;99.90;;;;;;5034191;28;20234;-58
2023/12/10 05:54:39;;;;;;;12.43;3.83;;;7.70;99.90;;;;;;5034119;28;20211;-60
2023/12/10 05:57:06;;;;;;;5.72;2.42;;;7.70;99.90;;;;;;5034022;28;20610;-59
2023/12/10 05:59:33;;;;;;;5.65;2.50;;;7.60;99.90;;;;;;5033848;28;20207;-60
2023/12/10 06:01:59;;;;;;;10.50;4.45;;;7.70;99.90;;;;;;5033953;28;20207;-59
2023/12/10 06:04:27;;;;;;;10.02;3.65;;;7.70;99.90;;;;;;5033983;28;20286;-59
2023/12/10 06:06:55;;;;;;;7.50;2.55;;;7.70;99.90;;;;;;5033755;28;20239;-58
2023/12/10 06:09:24;;;;;;;9.07;3.20;;;7.70;99.90;;;;;;5033648;28;20207;-58
2023/12/10 06:11:50;;;;;;;11.15;2.92;;;7.70;99.90;;;;;;5033865;28;20249;-58
2023/12/10 06:14:17;;;;;;;6.63;2.67;;;7.70;99.90;;;;;;5033712;28;20273;-59
2023/12/10 06:16:44;;;;;;;13.73;4.50;;;7.70;99.90;;;;;;5033469;28;20285;-58
2023/12/10 06:19:11;;;;;;;6.50;2.58;;;7.70;99.90;;;;;;5033638;28;20265;-56
2023/12/10 06:21:38;;;;;;;18.85;5.45;;;7.80;99.90;;;;;;5033831;28;20218;-58
2023/12/10 06:24:05;;;;;;;7.05;3.13;;;7.80;99.90;;;;;;5033518;28;20263;-59
2023/12/10 06:26:33;;;;;;;10.38;3.92;;;7.80;99.90;;;;;;5033453;28;20298;-59
2023/12/10 06:29:00;;;;;;;11.25;3.42;;;7.80;99.90;;;;;;5033284;28;20633;-57
2023/12/10 06:31:27;;;;;;;9.35;5.18;;;7.80;99.90;;;;;;5033519;28;20207;-60
2023/12/10 06:33:54;;;;;;;4.88;2.65;;;7.80;99.90;;;;;;5033406;28;20261;-60
2023/12/10 06:36:21;;;;;;;12.65;3.80;;;7.80;99.90;;;;;;5033074;28;20258;-59
2023/12/10 06:38:48;;;;;;;16.25;4.15;;;7.80;99.90;;;;;;5033088;28;20215;-57
2023/12/10 06:41:15;;;;;;;10.63;3.83;;;7.80;99.90;;;;;;5032498;28;20207;-59
2023/12/10 06:43:43;;;;;;;9.38;4.38;;;7.70;99.90;;;;;;5033205;28;20719;-57
2023/12/10 06:46:13;;;;;;;6.57;2.95;;;7.70;99.90;;;;;;5032479;28;20289;-59
2023/12/10 06:48:40;;;;;;;7.28;3.08;;;7.80;99.90;;;;;;5032652;28;20727;-60
2023/12/10 06:51:07;;;;;;;14.70;4.28;;;7.70;99.90;;;;;;5032939;28;20669;-57
2023/12/10 06:53:34;;;;;;;14.82;4.13;;;7.80;99.90;;;;;;5032930;28;20199;-59
2023/12/10 06:56:01;;;;;;;10.70;3.50;;;7.80;99.90;;;;;;5032587;28;20231;-54
2023/12/10 06:58:28;;;;;;;8.32;3.30;;;7.80;99.90;;;;;;5032424;28;20261;-59
2023/12/10 07:00:57;;;;;;;7.80;3.55;;;7.80;99.90;;;;;;5032788;28;20634;-58
2023/12/10 07:03:23;;;;;;;8.50;3.50;;;7.80;99.90;;;;;;5032700;28;20223;-60
2023/12/10 07:05:50;;;;;;;6.15;3.47;;;7.90;99.90;;;;;;5032377;28;20725;-59
2023/12/10 07:08:17;;;;;;;7.85;3.95;;;7.90;99.90;;;;;;5032395;28;20207;-59
2023/12/10 07:10:44;;;;;;;11.00;3.65;;;7.90;99.90;;;;;;5032519;28;20207;-58
2023/12/10 07:13:11;;;;;;;13.90;5.90;;;8.00;99.90;;;;;;5032724;28;20252;-58
2023/12/10 07:15:38;;;;;;;12.30;3.67;;;8.00;99.90;;;;;;5032464;28;21028;-60
2023/12/10 07:18:06;;;;;;;9.13;4.20;;;8.00;99.90;;;;;;5032260;28;20207;-60
2023/12/10 07:20:33;;;;;;;12.70;4.20;;;8.00;99.90;;;;;;5032423;28;20214;-59
2023/12/10 07:23:00;;;;;;;14.68;5.13;;;8.00;99.90;;;;;;5032128;28;20243;-60
2023/12/10 07:25:27;;;;;;;10.18;4.40;;;8.00;99.90;;;;;;5032453;28;20624;-58
2023/12/10 07:27:54;;;;;;;19.88;5.00;;;8.00;99.90;;;;;;5032176;28;20253;-60
2023/12/10 07:30:21;;;;;;;11.18;3.53;;;8.00;99.90;;;;;;5032229;28;20229;-58
2023/12/10 07:32:48;;;;;;;12.50;4.10;;;8.00;99.90;;;;;;5031471;28;20286;-60
2023/12/10 07:35:16;;;;;;;7.25;3.95;;;8.10;99.90;;;;;;5031544;28;20230;-60
2023/12/10 07:37:43;;;;;;;9.52;4.38;;;8.10;99.90;;;;;;5031197;28;20199;-60
2023/12/10 07:40:12;;;;;;;6.72;4.00;;;8.10;99.90;;;;;;5031509;28;20202;-59
2023/12/10 07:42:39;;;;;;;12.20;4.30;;;8.20;99.90;;;;;;5031444;28;20211;-59
2023/12/10 07:45:06;;;;;;;10.88;4.10;;;8.20;99.90;;;;;;5031638;28;20231;-57
2023/12/10 07:47:33;;;;;;;8.25;4.03;;;8.20;99.90;;;;;;5031611;28;20361;-59
2023/12/10 07:50:00;;;;;;;8.27;3.67;;;8.20;99.90;;;;;;5030762;28;20235;-59
2023/12/10 07:52:28;;;;;;;12.10;4.28;;;8.20;99.90;;;;;;5030552;28;20203;-59
2023/12/10 07:54:55;;;;;;;10.73;3.95;;;8.30;99.90;;;;;;5031826;28;20208;-59
2023/12/10 07:57:22;;;;;;;10.32;4.80;;;8.30;99.90;;;;;;5031007;28;20866;-57
2023/12/10 07:59:49;;;;;;;7.63;3.35;;;8.30;99.90;;;;;;5031272;28;20257;-58
2023/12/10 08:02:16;;;;;;;8.10;3.55;;;8.30;99.90;;;;;;5031414;28;20206;-59
2023/12/10 08:04:43;;;;;;;11.10;4.85;;;8.30;99.90;;;;;;5030862;28;20247;-59
2023/12/10 08:07:10;;;;;;;8.57;5.97;;;8.40;99.90;;;;;;5030804;28;20799;-58
2023/12/10 08:09:38;;;;;;;8.63;3.78;;;8.40;99.90;;;;;;5028644;28;20629;-58
2023/12/10 08:12:06;;;;;;;9.93;3.53;;;8.30;99.90;;;;;;5031610;28;20211;-60
2023/12/10 08:14:33;;;;;;;9.20;3.20;;;8.30;99.90;;;;;;5031390;28;20688;-57
2023/12/10 08:17:00;;;;;;;10.07;3.00;;;8.30;99.90;;;;;;5030959;28;20273;-59
2023/12/10 08:19:27;;;;;;;13.38;4.63;;;8.30;99.90;;;;;;5031276;28;20322;-59
2023/12/10 08:21:54;;;;;;;9.95;2.97;;;8.40;99.90;;;;;;5031422;28;20238;-60
2023/12/10 08:24:21;;;;;;;9.73;3.60;;;8.40;99.90;;;;;;5031148;28;20223;-60
2023/12/10 08:26:49;;;;;;;5.18;3.03;;;8.40;99.90;;;;;;5031216;28;20230;-60
2023/12/10 08:29:16;;;;;;;10.93;3.60;;;8.40;99.90;;;;;;5030951;28;20206;-58
2023/12/10 08:31:43;;;;;;;7.40;2.67;;;8.40;99.90;;;;;;5030948;28;20257;-59
2023/12/10 08:34:10;;;;;;;11.85;3.95;;;8.50;99.90;;;;;;5031367;28;20744;-59
2023/12/10 08:36:37;;;;;;;12.10;4.00;;;8.50;99.90;;;;;;5030961;28;20230;-60
2023/12/10 08:39:04;;;;;;;8.50;2.95;;;8.50;99.90;;;;;;5031008;28;20446;-60
2023/12/10 08:41:32;;;;;;;7.37;3.30;;;8.50;99.90;;;;;;5031028;28;20700;-58
2023/12/10 08:44:00;;;;;;;9.88;4.00;;;8.60;99.90;;;;;;5030933;28;20559;-58
2023/12/10 08:46:27;;;;;;;7.93;4.40;;;8.70;99.90;;;;;;5030685;28;20281;-60
2023/12/10 08:48:55;;;;;;;11.55;4.53;;;8.60;99.90;;;;;;5030862;28;20207;-59
2023/12/10 08:51:22;;;;;;;9.45;2.95;;;8.70;99.90;;;;;;5030948;28;20217;-60
2023/12/10 08:53:49;;;;;;;7.93;3.92;;;8.70;99.90;;;;;;5031034;28;20211;-59
2023/12/10 08:56:16;;;;;;;5.60;3.53;;;8.70;99.90;;;;;;5030634;28;20227;-59
2023/12/10 08:58:42;;;;;;;8.50;3.15;;;8.70;99.90;;;;;;5030545;28;20238;-59
2023/12/10 09:01:11;;;;;;;8.57;2.78;;;8.70;99.90;;;;;;5030883;28;20297;-59
2023/12/10 09:03:42;;;;;;;6.63;3.17;;;8.70;99.90;;;;;;5032929;28;20300;-59
2023/12/10 09:06:09;;;;;;;6.47;3.25;;;8.70;99.90;;;;;;5034781;28;20325;-59
2023/12/10 09:08:36;;;;;;;9.98;4.40;;;8.70;99.90;;;;;;5034627;28;20232;-59
2023/12/10 09:11:04;;;;;;;8.88;3.75;;;8.70;99.90;;;;;;5034586;28;20203;-59
2023/12/10 09:13:31;;;;;;;8.87;3.17;;;8.80;99.90;;;;;;5034642;28;20297;-59
2023/12/10 09:15:58;;;;;;;11.30;3.90;;;8.80;99.90;;;;;;5034681;28;20493;-57
2023/12/10 09:18:27;;;;;;;12.63;4.07;;;8.90;99.90;;;;;;5034492;28;20329;-58
2023/12/10 09:20:54;;;;;;;9.20;4.82;;;9.00;99.90;;;;;;5034564;28;20206;-59
2023/12/10 09:23:21;;;;;;;14.50;4.55;;;9.00;99.90;;;;;;5034526;28;20697;-58
2023/12/10 09:25:48;;;;;;;8.05;5.65;;;9.00;99.90;;;;;;5034343;28;20231;-60
2023/12/10 09:28:15;;;;;;;5.60;4.03;;;9.10;99.90;;;;;;5034409;28;20211;-59
2023/12/10 09:30:42;;;;;;;10.00;3.67;;;9.00;99.90;;;;;;5034642;28;20300;-59
2023/12/10 09:33:10;;;;;;;8.90;3.20;;;9.10;99.90;;;;;;5033469;28;20257;-57
2023/12/10 09:35:39;;;;;;;12.52;4.65;;;9.00;99.90;;;;;;5034222;28;20495;-60
2023/12/10 09:38:06;;;;;;;13.68;4.47;;;9.00;99.90;;;;;;5033043;28;20199;-58
2023/12/10 09:40:33;;;;;;;5.28;2.50;;;9.00;99.90;;;;;;5033367;28;20214;-60
2023/12/10 09:43:01;;;;;;;6.88;3.28;;;9.10;99.90;;;;;;5034296;28;20600;-59
2023/12/10 09:45:28;;;;;;;5.37;2.47;;;9.00;99.90;;;;;;5033749;28;20229;-59
2023/12/10 09:47:55;;;;;;;8.52;4.28;;;9.10;99.90;;;;;;5033900;28;20441;-59
2023/12/10 09:50:24;;;;;;;16.97;3.43;;;9.10;99.90;;;;;;5032695;28;20219;-57
2023/12/10 09:52:53;;;;;;;6.83;3.30;;;9.10;99.90;;;;;;5032238;28;20512;-59
2023/12/10 09:55:20;;;;;;;12.52;3.90;;;9.10;99.90;;;;;;5033394;28;20449;-60
2023/12/10 09:57:48;;;;;;;7.07;3.20;;;9.20;99.90;;;;;;5030552;28;20635;-61
2023/12/10 10:00:17;;;;;;;9.37;4.17;;;9.20;99.90;;;;;;5033594;28;20214;-59
2023/12/10 10:02:44;;;;;;;3.65;3.33;;;9.20;99.90;;;;;;5032883;28;20518;-57
2023/12/10 10:05:11;;;;;;;10.70;3.83;;;9.20;99.90;;;;;;5033359;28;20265;-59
2023/12/10 10:07:38;;;;;;;7.40;4.30;;;9.30;99.90;;;;;;5032371;28;20489;-59
2023/12/10 10:10:10;;;;;;;3.38;2.58;;;9.40;99.90;;;;;;5033408;28;20481;-59
2023/12/10 10:12:37;;;;;;;12.80;3.27;;;9.40;99.90;;;;;;5030806;28;20207;-59
2023/12/10 10:15:05;;;;;;;7.43;3.30;;;9.50;99.90;;;;;;5029410;28;20504;-60
2023/12/10 10:17:34;;;;;;;8.10;2.03;;;9.50;99.90;;;;;;5032507;28;20523;-59
2023/12/10 10:20:04;;;;;;;5.70;3.60;;;9.60;99.90;;;;;;5032018;28;20218;-60
2023/12/10 10:22:32;;;;;;;4.10;2.70;;;9.60;99.90;;;;;;5033231;28;20454;-60
2023/12/10 10:24:59;;;;;;;7.57;2.90;;;9.60;99.90;;;;;;5032475;28;20516;-58
2023/12/10 10:27:28;;;;;;;5.60;2.60;;;9.70;99.90;;;;;;5032727;28;20520;-58
2023/12/10 10:29:55;;;;;;;9.27;3.60;;;9.70;99.90;;;;;;5032271;28;20462;-59
2023/12/10 10:32:23;;;;;;;15.73;4.10;;;9.70;99.90;;;;;;5032616;28;20454;-61
2023/12/10 10:34:51;;;;;;;8.67;2.60;;;9.60;99.90;;;;;;5032634;28;20441;-59
2023/12/10 10:37:19;;;;;;;6.10;2.47;;;9.60;99.90;;;;;;5032467;28;20498;-58
2023/12/10 10:39:48;;;;;;;4.90;2.63;;;9.60;99.90;;;;;;5032471;28;20450;-58
2023/12/10 10:42:14;;;;;;;4.33;2.60;;;9.60;99.90;;;;;;5032623;28;20453;-58
2023/12/10 10:44:43;;;;;;;11.07;3.28;;;9.60;99.90;;;;;;5032181;28;20516;-60
2023/12/10 10:47:10;;;;;;;7.50;2.78;;;9.70;99.90;;;;;;5032300;28;20231;-58
2023/12/10 10:49:41;;;;;;;4.00;2.80;;;9.70;99.90;;;;;;5030870;28;20223;-60
2023/12/10 10:52:12;;;;;;;10.10;2.93;;;9.70;99.90;;;;;;5032709;28;20492;-59
2023/12/10 10:54:40;;;;;;;7.97;3.47;;;9.70;99.90;;;;;;5031327;28;20477;-60
2023/12/10 10:57:08;;;;;;;12.13;2.77;;;9.80;99.90;;;;;;5027541;28;20904;-60
2023/12/10 10:59:36;;;;;;;5.23;2.77;;;9.80;99.90;;;;;;5031691;28;20851;-57
2023/12/10 11:02:07;;;;;;;8.03;3.60;;;9.90;99.90;;;;;;5031503;28;20462;-61
2023/12/10 11:04:35;;;;;;;6.27;3.23;;;10.00;99.90;;;;;;5032207;28;21007;-61
2023/12/10 11:07:03;;;;;;;12.07;3.60;;;10.00;99.90;;;;;;5030683;28;21025;-60
2023/12/10 11:09:31;;;;;;;5.13;2.80;;;10.10;99.90;;;;;;5031857;28;21034;-58
2023/12/10 11:11:58;;;;;;;8.53;3.03;;;10.20;99.90;;;;;;5031125;28;20449;-60
2023/12/10 11:14:28;;;;;;;15.93;3.60;;;10.20;99.90;;;;;;5031858;28;20839;-57
2023/12/10 11:16:58;;;;;;;5.53;2.77;;;10.30;99.90;;;;;;5028993;28;20474;-59
2023/12/10 11:19:28;;;;;;;8.43;3.50;;;10.40;99.90;;;;;;5030411;28;20881;-57
2023/12/10 11:21:55;;;;;;;4.30;2.87;;;10.40;99.90;;;;;;5027785;28;20805;-59
2023/12/10 11:24:23;;;;;;;5.80;3.70;;;10.30;99.90;;;;;;5031331;28;20512;-59
2023/12/10 11:26:50;;;;;;;8.50;3.03;;;10.30;99.90;;;;;;5029871;28;20469;-60
2023/12/10 11:29:17;;;;;;;4.47;3.47;;;10.30;99.90;;;;;;5031880;28;20819;-61
2023/12/10 11:31:44;;;;;;;7.23;3.33;;;10.30;99.90;;;;;;5031734;28;20485;-61
2023/12/10 11:34:12;;;;;;;9.17;2.67;;;10.40;99.90;;;;;;5031503;28;21020;-60
2023/12/10 11:36:46;;;;;;;7.40;4.00;;;10.40;99.90;;;;;;5030780;28;20470;-59
2023/12/10 11:39:14;;;;;;;10.20;4.13;;;10.50;99.90;;;;;;5031256;28;20532;-60
2023/12/10 11:41:42;;;;;;;10.17;2.93;;;10.50;99.90;;;;;;5031648;28;20548;-60
2023/12/10 11:44:10;;;;;;;4.17;2.83;;;10.50;99.90;;;;;;5031386;28;20531;-60
2023/12/10 11:46:37;;;;;;;4.67;3.03;;;10.60;99.90;;;;;;5031163;28;20500;-59
2023/12/10 11:49:05;;;;;;;5.27;2.53;;;10.70;99.90;;;;;;5031056;28;20461;-60
2023/12/10 11:51:32;;;;;;;3.53;2.80;;;10.70;99.90;;;;;;5031304;28;20531;-60
2023/12/10 11:54:00;;;;;;;4.80;2.70;;;10.70;99.90;;;;;;5031439;28;20485;-59
2023/12/10 11:56:27;;;;;;;8.40;3.27;;;10.70;99.90;;;;;;5030993;28;20473;-56
2023/12/10 11:58:54;;;;;;;13.60;4.90;;;10.70;99.90;;;;;;5031138;28;20477;-60
2023/12/10 12:01:21;;;;;;;5.50;3.40;;;10.70;99.90;;;;;;5031661;28;20481;-60
2023/12/10 12:03:49;;;;;;;7.07;4.80;;;10.70;99.90;;;;;;5031111;28;20497;-60
2023/12/10 12:06:16;;;;;;;10.77;2.80;;;10.70;99.90;;;;;;5028229;28;20494;-58
2023/12/10 12:08:43;;;;;;;8.40;6.00;;;10.60;99.90;;;;;;5030157;28;20470;-60
2023/12/10 12:11:12;;;;;;;11.93;3.70;;;10.60;99.90;;;;;;5029613;28;20542;-59
2023/12/10 12:13:39;;;;;;;9.40;4.73;;;10.60;99.90;;;;;;5030123;28;20454;-57
2023/12/10 12:16:06;;;;;;;7.33;3.20;;;10.50;99.90;;;;;;5029274;28;21024;-60
2023/12/10 12:18:33;;;;;;;8.53;3.30;;;10.60;99.90;;;;;;5029561;28;20482;-59
2023/12/10 12:21:00;;;;;;;4.70;3.20;;;10.60;99.90;;;;;;5029545;28;20530;-59
2023/12/10 12:23:27;;;;;;;6.37;2.90;;;10.60;99.90;;;;;;5030476;28;20545;-60
2023/12/10 12:25:54;;;;;;;8.40;2.77;;;10.70;99.90;;;;;;5029192;28;20517;-58
2023/12/10 12:28:22;;;;;;;8.00;3.80;;;10.60;99.90;;;;;;5029908;28;20457;-60
2023/12/10 12:30:49;;;;;;;4.50;3.50;;;10.60;99.90;;;;;;5029238;28;20457;-60
2023/12/10 12:33:16;;;;;;;5.97;2.80;;;10.60;99.90;;;;;;5029653;28;20956;-59
2023/12/10 12:35:43;;;;;;;9.70;3.60;;;10.50;99.90;;;;;;5028392;28;20481;-60
2023/12/10 12:38:10;;;;;;;8.10;2.90;;;10.60;99.90;;;;;;5029252;28;20478;-60
2023/12/10 12:40:37;;;;;;;4.03;2.37;;;10.60;99.90;;;;;;5030399;28;20491;-60
2023/12/10 12:43:04;;;;;;;10.77;3.43;;;10.70;99.90;;;;;;5030854;28;20481;-57
2023/12/10 12:45:32;;;;;;;5.83;2.63;;;10.70;99.90;;;;;;5030154;28;20514;-61
2023/12/10 12:47:59;;;;;;;9.70;2.23;;;10.80;99.90;;;;;;5030262;28;20445;-61
2023/12/10 12:50:27;;;;;;;11.80;2.67;;;10.80;99.90;;;;;;5030576;28;20858;-60